Terminal Aerodrome Forecast
Issued by NWS

Current Version | Previous Version | Text Only | Print | Product List | Glossary Off
Versions: 1 2 3 4 5 6 7 8 9 10 11 12 13 14 15 16 17 18 19

000
FTUS41 KILN 152111 AAA
TAFLCK
TAF AMD
KLCK 152111Z 1521/1618 17010KT 3SM -SN OVC012
      TEMPO 1522/1601 1SM -SN OVC008
     FM160400 24006KT P6SM VCSH OVC022
     FM160600 27007KT P6SM OVC022
     FM160900 27007KT P6SM SCT022 BKN050
     FM161500 26007KT P6SM BKN022=

USA.gov is the U.S. government's official web portal to all federal, state and local government web resources and services.